sensor_id;sensor_type;location;lat;lon;timestamp;pressure;altitude;pressure_sealevel;temperature;humidity
29359;BME280;16347;53.232;6.556;2023-04-16T00:00:53;102143.81;;;12.11;70.70
29359;BME280;16347;53.232;6.556;2023-04-16T00:03:23;102142.81;;;12.12;70.18
29359;BME280;16347;53.232;6.556;2023-04-16T00:05:51;102145.09;;;12.16;70.24
29359;BME280;16347;53.232;6.556;2023-04-16T00:08:21;102141.50;;;12.16;70.10
29359;BME280;16347;53.232;6.556;2023-04-16T00:10:51;102142.66;;;12.13;70.08
29359;BME280;16347;53.232;6.556;2023-04-16T00:13:19;102144.78;;;12.10;69.89
29359;BME280;16347;53.232;6.556;2023-04-16T00:15:48;102146.50;;;12.01;70.18
29359;BME280;16347;53.232;6.556;2023-04-16T00:18:15;102150.09;;;12.02;70.21
29359;BME280;16347;53.232;6.556;2023-04-16T00:20:45;102156.25;;;12.04;70.47
29359;BME280;16347;53.232;6.556;2023-04-16T00:23:12;102151.06;;;12.01;70.06
29359;BME280;16347;53.232;6.556;2023-04-16T00:25:40;102155.47;;;11.92;70.78
29359;BME280;16347;53.232;6.556;2023-04-16T00:28:09;102161.19;;;11.89;70.68
29359;BME280;16347;53.232;6.556;2023-04-16T00:30:37;102166.25;;;11.94;70.55
29359;BME280;16347;53.232;6.556;2023-04-16T00:33:05;102161.94;;;11.91;70.50
29359;BME280;16347;53.232;6.556;2023-04-16T00:35:33;102166.91;;;11.86;70.31
29359;BME280;16347;53.232;6.556;2023-04-16T00:38:03;102164.94;;;11.88;70.88
29359;BME280;16347;53.232;6.556;2023-04-16T00:40:31;102170.31;;;11.78;70.70
29359;BME280;16347;53.232;6.556;2023-04-16T00:42:58;102177.38;;;11.81;70.64
29359;BME280;16347;53.232;6.556;2023-04-16T00:45:26;102177.50;;;11.79;71.21
29359;BME280;16347;53.232;6.556;2023-04-16T00:47:57;102169.72;;;11.75;70.96
29359;BME280;16347;53.232;6.556;2023-04-16T00:50:26;102178.91;;;11.74;71.34
29359;BME280;16347;53.232;6.556;2023-04-16T00:52:55;102175.94;;;11.66;71.48
29359;BME280;16347;53.232;6.556;2023-04-16T00:55:25;102178.25;;;11.50;71.94
29359;BME280;16347;53.232;6.556;2023-04-16T00:57:53;102181.69;;;11.52;71.84
29359;BME280;16347;53.232;6.556;2023-04-16T01:00:21;102180.19;;;11.59;71.85
29359;BME280;16347;53.232;6.556;2023-04-16T01:02:49;102187.25;;;11.61;72.15
29359;BME280;16347;53.232;6.556;2023-04-16T01:05:18;102182.78;;;11.60;72.42
29359;BME280;16347;53.232;6.556;2023-04-16T01:07:46;102184.84;;;11.68;72.27
29359;BME280;16347;53.232;6.556;2023-04-16T01:10:14;102180.34;;;11.57;72.15
29359;BME280;16347;53.232;6.556;2023-04-16T01:12:43;102179.34;;;11.58;72.52
29359;BME280;16347;53.232;6.556;2023-04-16T01:15:11;102185.88;;;11.35;73.19
29359;BME280;16347;53.232;6.556;2023-04-16T01:17:40;102186.97;;;11.44;73.04
29359;BME280;16347;53.232;6.556;2023-04-16T01:20:08;102188.44;;;11.48;73.59
29359;BME280;16347;53.232;6.556;2023-04-16T01:22:38;102188.34;;;11.59;73.11
29359;BME280;16347;53.232;6.556;2023-04-16T01:25:06;102185.03;;;11.55;72.75
29359;BME280;16347;53.232;6.556;2023-04-16T01:27:34;102183.94;;;11.58;72.95
29359;BME280;16347;53.232;6.556;2023-04-16T01:30:04;102186.22;;;11.62;73.06
29359;BME280;16347;53.232;6.556;2023-04-16T01:32:43;102191.91;;;11.70;72.71
29359;BME280;16347;53.232;6.556;2023-04-16T01:35:12;102185.47;;;11.71;73.23
29359;BME280;16347;53.232;6.556;2023-04-16T01:37:42;102181.63;;;11.74;72.85
29359;BME280;16347;53.232;6.556;2023-04-16T01:40:10;102185.06;;;11.76;72.80
29359;BME280;16347;53.232;6.556;2023-04-16T01:42:39;102182.81;;;11.81;72.75
29359;BME280;16347;53.232;6.556;2023-04-16T01:45:09;102180.09;;;11.81;72.33
29359;BME280;16347;53.232;6.556;2023-04-16T01:47:39;102179.53;;;11.87;72.34
29359;BME280;16347;53.232;6.556;2023-04-16T01:50:09;102181.72;;;11.93;72.13
29359;BME280;16347;53.232;6.556;2023-04-16T01:52:37;102184.94;;;11.98;72.12
29359;BME280;16347;53.232;6.556;2023-04-16T01:55:07;102188.38;;;12.00;72.05
29359;BME280;16347;53.232;6.556;2023-04-16T01:57:36;102185.75;;;11.99;71.16
29359;BME280;16347;53.232;6.556;2023-04-16T02:00:05;102184.13;;;11.87;71.79
29359;BME280;16347;53.232;6.556;2023-04-16T02:02:44;102184.53;;;11.82;71.83
29359;BME280;16347;53.232;6.556;2023-04-16T02:05:17;102188.13;;;11.82;72.02
29359;BME280;16347;53.232;6.556;2023-04-16T02:07:45;102188.00;;;11.84;72.30
29359;BME280;16347;53.232;6.556;2023-04-16T02:10:14;102187.84;;;11.86;72.20
29359;BME280;16347;53.232;6.556;2023-04-16T02:12:43;102190.44;;;11.87;72.35
29359;BME280;16347;53.232;6.556;2023-04-16T02:15:12;102198.69;;;11.97;72.37
29359;BME280;16347;53.232;6.556;2023-04-16T02:17:41;102198.88;;;12.05;71.93
29359;BME280;16347;53.232;6.556;2023-04-16T02:20:10;102193.81;;;12.00;71.63
29359;BME280;16347;53.232;6.556;2023-04-16T02:22:50;102192.03;;;11.90;71.53
29359;BME280;16347;53.232;6.556;2023-04-16T02:25:22;102194.75;;;11.90;71.94
29359;BME280;16347;53.232;6.556;2023-04-16T02:27:52;102193.63;;;11.92;72.10
29359;BME280;16347;53.232;6.556;2023-04-16T02:30:31;102200.81;;;11.93;71.52
29359;BME280;16347;53.232;6.556;2023-04-16T02:33:01;102197.47;;;11.90;71.78
29359;BME280;16347;53.232;6.556;2023-04-16T02:35:31;102201.78;;;11.92;71.60
29359;BME280;16347;53.232;6.556;2023-04-16T02:37:59;102194.38;;;11.94;71.82
29359;BME280;16347;53.232;6.556;2023-04-16T02:40:29;102193.03;;;11.89;71.70
29359;BME280;16347;53.232;6.556;2023-04-16T02:42:57;102194.16;;;11.86;71.57
29359;BME280;16347;53.232;6.556;2023-04-16T02:45:26;102185.91;;;11.97;71.55
29359;BME280;16347;53.232;6.556;2023-04-16T02:47:54;102188.44;;;11.89;71.31
29359;BME280;16347;53.232;6.556;2023-04-16T02:50:22;102185.88;;;11.88;71.51
29359;BME280;16347;53.232;6.556;2023-04-16T02:52:50;102190.50;;;11.97;71.35
29359;BME280;16347;53.232;6.556;2023-04-16T02:55:18;102182.66;;;12.03;71.35
29359;BME280;16347;53.232;6.556;2023-04-16T02:57:47;102176.59;;;12.00;70.99
29359;BME280;16347;53.232;6.556;2023-04-16T03:00:14;102178.78;;;12.06;71.13
29359;BME280;16347;53.232;6.556;2023-04-16T03:02:42;102182.97;;;12.10;70.69
29359;BME280;16347;53.232;6.556;2023-04-16T03:05:10;102182.38;;;12.06;70.48
29359;BME280;16347;53.232;6.556;2023-04-16T03:07:38;102182.06;;;12.00;70.58
29359;BME280;16347;53.232;6.556;2023-04-16T03:10:07;102189.69;;;12.06;70.92
29359;BME280;16347;53.232;6.556;2023-04-16T03:12:35;102191.28;;;12.08;70.72
29359;BME280;16347;53.232;6.556;2023-04-16T03:15:07;102186.19;;;11.94;70.91
29359;BME280;16347;53.232;6.556;2023-04-16T03:17:35;102191.44;;;11.86;70.97
29359;BME280;16347;53.232;6.556;2023-04-16T03:20:05;102191.44;;;11.86;71.04
29359;BME280;16347;53.232;6.556;2023-04-16T03:22:33;102190.44;;;11.87;70.92
29359;BME280;16347;53.232;6.556;2023-04-16T03:25:01;102186.66;;;11.78;71.41
29359;BME280;16347;53.232;6.556;2023-04-16T03:27:30;102189.25;;;11.80;71.43
29359;BME280;16347;53.232;6.556;2023-04-16T03:29:57;102194.59;;;11.81;71.49
29359;BME280;16347;53.232;6.556;2023-04-16T03:32:27;102202.56;;;11.73;71.34
29359;BME280;16347;53.232;6.556;2023-04-16T03:34:56;102204.88;;;11.78;71.51
29359;BME280;16347;53.232;6.556;2023-04-16T03:37:24;102204.63;;;11.81;71.75
29359;BME280;16347;53.232;6.556;2023-04-16T03:39:52;102213.78;;;11.80;71.35
29359;BME280;16347;53.232;6.556;2023-04-16T03:42:20;102206.88;;;11.76;71.26
29359;BME280;16347;53.232;6.556;2023-04-16T03:44:48;102215.19;;;11.74;71.69
29359;BME280;16347;53.232;6.556;2023-04-16T03:47:17;102210.59;;;11.75;71.31
29359;BME280;16347;53.232;6.556;2023-04-16T03:49:47;102214.16;;;11.75;71.62
29359;BME280;16347;53.232;6.556;2023-04-16T03:52:18;102216.38;;;11.81;71.69
29359;BME280;16347;53.232;6.556;2023-04-16T03:54:46;102216.72;;;11.88;71.16
29359;BME280;16347;53.232;6.556;2023-04-16T03:57:22;102210.47;;;11.76;70.95
29359;BME280;16347;53.232;6.556;2023-04-16T03:59:51;102217.00;;;11.85;71.30
29359;BME280;16347;53.232;6.556;2023-04-16T04:02:20;102215.97;;;11.86;71.16
29359;BME280;16347;53.232;6.556;2023-04-16T04:04:49;102214.00;;;11.88;71.34
29359;BME280;16347;53.232;6.556;2023-04-16T04:07:17;102217.81;;;11.86;70.92
29359;BME280;16347;53.232;6.556;2023-04-16T04:09:45;102217.81;;;11.86;71.18
29359;BME280;16347;53.232;6.556;2023-04-16T04:12:14;102222.16;;;11.88;70.78
29359;BME280;16347;53.232;6.556;2023-04-16T04:14:42;102222.88;;;11.90;70.62
29359;BME280;16347;53.232;6.556;2023-04-16T04:17:10;102231.53;;;11.95;70.43
29359;BME280;16347;53.232;6.556;2023-04-16T04:19:38;102225.94;;;11.97;70.20
29359;BME280;16347;53.232;6.556;2023-04-16T04:22:21;102226.81;;;11.97;70.21
29359;BME280;16347;53.232;6.556;2023-04-16T04:24:51;102231.38;;;11.97;69.93
29359;BME280;16347;53.232;6.556;2023-04-16T04:27:19;102234.13;;;11.97;70.37
29359;BME280;16347;53.232;6.556;2023-04-16T04:29:47;102234.25;;;11.95;70.06
29359;BME280;16347;53.232;6.556;2023-04-16T04:32:15;102237.22;;;11.92;70.30
29359;BME280;16347;53.232;6.556;2023-04-16T04:34:44;102240.09;;;11.91;70.21
29359;BME280;16347;53.232;6.556;2023-04-16T04:37:11;102241.09;;;11.90;70.28
29359;BME280;16347;53.232;6.556;2023-04-16T04:39:41;102235.59;;;11.80;70.17
29359;BME280;16347;53.232;6.556;2023-04-16T04:42:11;102248.00;;;11.73;70.35
29359;BME280;16347;53.232;6.556;2023-04-16T04:44:39;102244.25;;;11.85;70.54
29359;BME280;16347;53.232;6.556;2023-04-16T04:47:07;102249.84;;;11.72;70.36
29359;BME280;16347;53.232;6.556;2023-04-16T04:49:35;102250.88;;;11.71;70.66
29359;BME280;16347;53.232;6.556;2023-04-16T04:52:03;102250.34;;;11.66;71.23
29359;BME280;16347;53.232;6.556;2023-04-16T04:54:31;102256.94;;;11.75;70.94
29359;BME280;16347;53.232;6.556;2023-04-16T04:57:01;102255.97;;;11.86;70.81
29359;BME280;16347;53.232;6.556;2023-04-16T04:59:29;102258.59;;;11.87;70.85
29359;BME280;16347;53.232;6.556;2023-04-16T05:01:58;102258.78;;;11.95;70.64
29359;BME280;16347;53.232;6.556;2023-04-16T05:04:27;102267.97;;;11.94;70.31
29359;BME280;16347;53.232;6.556;2023-04-16T05:06:55;102256.91;;;11.96;70.58
29359;BME280;16347;53.232;6.556;2023-04-16T05:09:23;102261.09;;;12.00;70.60
29359;BME280;16347;53.232;6.556;2023-04-16T05:11:51;102262.44;;;12.05;70.54
29359;BME280;16347;53.232;6.556;2023-04-16T05:14:20;102265.75;;;12.09;70.21
29359;BME280;16347;53.232;6.556;2023-04-16T05:16:48;102259.91;;;12.13;70.27
29359;BME280;16347;53.232;6.556;2023-04-16T05:19:16;102269.66;;;12.16;69.97
29359;BME280;16347;53.232;6.556;2023-04-16T05:21:44;102266.75;;;12.08;69.74
29359;BME280;16347;53.232;6.556;2023-04-16T05:24:12;102268.63;;;11.87;69.41
29359;BME280;16347;53.232;6.556;2023-04-16T05:26:40;102268.69;;;11.96;69.96
29359;BME280;16347;53.232;6.556;2023-04-16T05:29:08;102279.31;;;11.99;69.63
29359;BME280;16347;53.232;6.556;2023-04-16T05:31:38;102278.13;;;11.92;69.70
29359;BME280;16347;53.232;6.556;2023-04-16T05:34:06;102280.25;;;11.89;69.59
29359;BME280;16347;53.232;6.556;2023-04-16T05:36:34;102286.56;;;11.89;69.90
29359;BME280;16347;53.232;6.556;2023-04-16T05:39:02;102290.91;;;11.92;69.83
29359;BME280;16347;53.232;6.556;2023-04-16T05:41:30;102291.03;;;11.90;69.55
29359;BME280;16347;53.232;6.556;2023-04-16T05:43:58;102298.94;;;11.93;69.67
29359;BME280;16347;53.232;6.556;2023-04-16T05:46:26;102296.81;;;11.97;70.18
29359;BME280;16347;53.232;6.556;2023-04-16T05:48:55;102291.34;;;11.97;70.26
29359;BME280;16347;53.232;6.556;2023-04-16T05:51:23;102297.41;;;12.00;70.22
29359;BME280;16347;53.232;6.556;2023-04-16T05:53:52;102294.69;;;12.00;69.91
29359;BME280;16347;53.232;6.556;2023-04-16T05:56:20;102298.88;;;12.04;70.27
29359;BME280;16347;53.232;6.556;2023-04-16T05:58:48;102297.88;;;12.05;70.17
29359;BME280;16347;53.232;6.556;2023-04-16T06:01:17;102300.47;;;12.07;70.28
29359;BME280;16347;53.232;6.556;2023-04-16T06:03:45;102300.25;;;11.99;70.36
29359;BME280;16347;53.232;6.556;2023-04-16T06:06:14;102301.00;;;12.01;70.60
29359;BME280;16347;53.232;6.556;2023-04-16T06:08:42;102307.19;;;12.03;70.30
29359;BME280;16347;53.232;6.556;2023-04-16T06:11:10;102310.66;;;12.05;70.62
29359;BME280;16347;53.232;6.556;2023-04-16T06:13:38;102316.75;;;11.97;70.84
29359;BME280;16347;53.232;6.556;2023-04-16T06:16:06;102315.78;;;11.98;70.97
29359;BME280;16347;53.232;6.556;2023-04-16T06:18:34;102321.94;;;12.00;71.02
29359;BME280;16347;53.232;6.556;2023-04-16T06:21:02;102319.94;;;12.02;71.19
29359;BME280;16347;53.232;6.556;2023-04-16T06:23:31;102324.56;;;12.02;71.01
29359;BME280;16347;53.232;6.556;2023-04-16T06:25:59;102324.75;;;12.10;71.32
29359;BME280;16347;53.232;6.556;2023-04-16T06:28:27;102326.94;;;12.16;71.20
29359;BME280;16347;53.232;6.556;2023-04-16T06:30:55;102326.81;;;12.17;71.25
29359;BME280;16347;53.232;6.556;2023-04-16T06:33:23;102337.31;;;12.22;70.97
29359;BME280;16347;53.232;6.556;2023-04-16T06:35:51;102326.28;;;12.23;71.24
29359;BME280;16347;53.232;6.556;2023-04-16T06:38:19;102337.94;;;12.25;71.39
29359;BME280;16347;53.232;6.556;2023-04-16T06:40:49;102340.66;;;12.25;70.92
29359;BME280;16347;53.232;6.556;2023-04-16T06:43:16;102346.22;;;12.24;70.81
29359;BME280;16347;53.232;6.556;2023-04-16T06:45:44;102341.09;;;12.30;71.34
29359;BME280;16347;53.232;6.556;2023-04-16T06:48:12;102340.84;;;12.33;71.35
29359;BME280;16347;53.232;6.556;2023-04-16T06:50:40;102345.69;;;12.30;71.14
29359;BME280;16347;53.232;6.556;2023-04-16T06:53:08;102344.22;;;12.26;70.85
29359;BME280;16347;53.232;6.556;2023-04-16T06:55:36;102345.84;;;12.28;71.13
29359;BME280;16347;53.232;6.556;2023-04-16T06:58:05;102351.34;;;12.17;70.99
29359;BME280;16347;53.232;6.556;2023-04-16T07:00:33;102352.34;;;12.16;71.20
29359;BME280;16347;53.232;6.556;2023-04-16T07:03:01;102350.88;;;12.12;71.83
29359;BME280;16347;53.232;6.556;2023-04-16T07:05:29;102356.72;;;12.08;71.00
29359;BME280;16347;53.232;6.556;2023-04-16T07:07:57;102353.25;;;12.06;71.45
29359;BME280;16347;53.232;6.556;2023-04-16T07:10:25;102352.66;;;11.81;71.81
29359;BME280;16347;53.232;6.556;2023-04-16T07:12:53;102358.03;;;11.93;72.04
29359;BME280;16347;53.232;6.556;2023-04-16T07:15:22;102362.72;;;12.02;71.73
29359;BME280;16347;53.232;6.556;2023-04-16T07:17:50;102364.31;;;12.04;72.01
29359;BME280;16347;53.232;6.556;2023-04-16T07:20:18;102361.53;;;12.15;71.41
29359;BME280;16347;53.232;6.556;2023-04-16T07:22:45;102368.31;;;12.21;71.10
29359;BME280;16347;53.232;6.556;2023-04-16T07:25:13;102368.03;;;12.24;71.20
29359;BME280;16347;53.232;6.556;2023-04-16T07:27:41;102365.91;;;12.27;70.87
29359;BME280;16347;53.232;6.556;2023-04-16T07:30:09;102364.72;;;12.20;70.87
29359;BME280;16347;53.232;6.556;2023-04-16T07:32:39;102360.84;;;12.23;70.94
29359;BME280;16347;53.232;6.556;2023-04-16T07:35:07;102369.19;;;12.21;70.98
29359;BME280;16347;53.232;6.556;2023-04-16T07:37:35;102367.72;;;12.17;70.91
29359;BME280;16347;53.232;6.556;2023-04-16T07:40:04;102367.56;;;12.19;70.76
29359;BME280;16347;53.232;6.556;2023-04-16T07:42:32;102375.34;;;12.23;70.95
29359;BME280;16347;53.232;6.556;2023-04-16T07:45:00;102374.31;;;12.15;70.25
29359;BME280;16347;53.232;6.556;2023-04-16T07:47:27;102378.34;;;12.20;70.49
29359;BME280;16347;53.232;6.556;2023-04-16T07:49:57;102375.69;;;12.30;70.55
29359;BME280;16347;53.232;6.556;2023-04-16T07:52:25;102382.22;;;12.39;70.12
29359;BME280;16347;53.232;6.556;2023-04-16T07:54:53;102375.47;;;12.43;70.50
29359;BME280;16347;53.232;6.556;2023-04-16T07:57:21;102381.81;;;12.43;70.49
29359;BME280;16347;53.232;6.556;2023-04-16T07:59:48;102379.94;;;12.44;70.38
29359;BME280;16347;53.232;6.556;2023-04-16T08:02:16;102377.94;;;12.46;70.29
29359;BME280;16347;53.232;6.556;2023-04-16T08:04:45;102381.53;;;12.46;70.36
29359;BME280;16347;53.232;6.556;2023-04-16T08:07:14;102384.69;;;12.42;70.46
29359;BME280;16347;53.232;6.556;2023-04-16T08:09:50;102388.00;;;12.24;70.57
29359;BME280;16347;53.232;6.556;2023-04-16T08:12:18;102393.53;;;12.34;70.45
29359;BME280;16347;53.232;6.556;2023-04-16T08:14:46;102393.31;;;12.26;70.77
29359;BME280;16347;53.232;6.556;2023-04-16T08:17:15;102397.56;;;12.40;70.67
29359;BME280;16347;53.232;6.556;2023-04-16T08:19:43;102395.66;;;12.51;70.58
29359;BME280;16347;53.232;6.556;2023-04-16T08:22:11;102400.69;;;12.56;70.37
29359;BME280;16347;53.232;6.556;2023-04-16T08:24:40;102397.91;;;12.67;70.23
29359;BME280;16347;53.232;6.556;2023-04-16T08:27:08;102391.91;;;12.73;70.45
29359;BME280;16347;53.232;6.556;2023-04-16T08:29:45;102405.75;;;12.81;70.40
29359;BME280;16347;53.232;6.556;2023-04-16T08:32:12;102406.78;;;12.90;70.12
29359;BME280;16347;53.232;6.556;2023-04-16T08:34:41;102405.25;;;12.97;69.99
29359;BME280;16347;53.232;6.556;2023-04-16T08:37:09;102406.56;;;13.02;69.66
29359;BME280;16347;53.232;6.556;2023-04-16T08:39:37;102401.72;;;13.06;69.80
29359;BME280;16347;53.232;6.556;2023-04-16T08:42:12;102409.38;;;13.12;69.72
29359;BME280;16347;53.232;6.556;2023-04-16T08:44:42;102403.16;;;13.10;68.79
29359;BME280;16347;53.232;6.556;2023-04-16T08:47:15;102407.25;;;13.15;68.69
29359;BME280;16347;53.232;6.556;2023-04-16T08:49:43;102406.81;;;13.20;68.89
29359;BME280;16347;53.232;6.556;2023-04-16T08:52:15;102405.09;;;13.19;68.43
29359;BME280;16347;53.232;6.556;2023-04-16T08:54:47;102408.84;;;13.27;68.38
29359;BME280;16347;53.232;6.556;2023-04-16T08:57:28;102412.19;;;13.31;67.94
29359;BME280;16347;53.232;6.556;2023-04-16T08:59:57;102416.34;;;13.25;67.88
29359;BME280;16347;53.232;6.556;2023-04-16T09:02:26;102413.16;;;13.30;68.04
29359;BME280;16347;53.232;6.556;2023-04-16T09:04:57;102420.09;;;13.34;68.28
29359;BME280;16347;53.232;6.556;2023-04-16T09:07:27;102417.25;;;13.45;67.95
29359;BME280;16347;53.232;6.556;2023-04-16T09:09:56;102419.81;;;13.37;67.57
29359;BME280;16347;53.232;6.556;2023-04-16T09:12:29;102419.84;;;13.47;67.56
29359;BME280;16347;53.232;6.556;2023-04-16T09:14:58;102427.63;;;13.51;67.64
29359;BME280;16347;53.232;6.556;2023-04-16T09:17:28;102422.16;;;13.51;67.51
29359;BME280;16347;53.232;6.556;2023-04-16T09:19:56;102433.81;;;13.53;67.65
29359;BME280;16347;53.232;6.556;2023-04-16T09:22:24;102425.63;;;13.53;67.37
29359;BME280;16347;53.232;6.556;2023-04-16T09:24:52;102428.94;;;13.57;67.33
29359;BME280;16347;53.232;6.556;2023-04-16T09:27:20;102423.78;;;13.63;66.70
29359;BME280;16347;53.232;6.556;2023-04-16T09:29:52;102423.78;;;13.63;67.00
29359;BME280;16347;53.232;6.556;2023-04-16T09:32:24;102426.69;;;13.71;66.95
29359;BME280;16347;53.232;6.556;2023-04-16T09:34:54;102429.00;;;13.76;66.50
29359;BME280;16347;53.232;6.556;2023-04-16T09:37:23;102426.41;;;13.74;66.45
29359;BME280;16347;53.232;6.556;2023-04-16T09:39:53;102433.16;;;13.80;66.31
29359;BME280;16347;53.232;6.556;2023-04-16T09:42:26;102434.03;;;13.80;66.23
29359;BME280;16347;53.232;6.556;2023-04-16T09:44:56;102444.25;;;13.78;65.99
29359;BME280;16347;53.232;6.556;2023-04-16T09:47:38;102451.00;;;13.84;66.00
29359;BME280;16347;53.232;6.556;2023-04-16T09:50:07;102444.41;;;13.86;66.09
29359;BME280;16347;53.232;6.556;2023-04-16T09:52:38;102443.84;;;13.83;65.79
29359;BME280;16347;53.232;6.556;2023-04-16T09:55:07;102450.88;;;13.85;66.12
29359;BME280;16347;53.232;6.556;2023-04-16T09:57:36;102447.28;;;13.85;66.71
29359;BME280;16347;53.232;6.556;2023-04-16T10:00:07;102452.88;;;13.83;66.87
29359;BME280;16347;53.232;6.556;2023-04-16T10:02:38;102452.94;;;13.93;66.56
29359;BME280;16347;53.232;6.556;2023-04-16T10:05:08;102457.38;;;13.94;66.31
29359;BME280;16347;53.232;6.556;2023-04-16T10:07:36;102449.44;;;13.91;66.38
29359;BME280;16347;53.232;6.556;2023-04-16T10:10:05;102446.13;;;13.97;66.23
29359;BME280;16347;53.232;6.556;2023-04-16T10:12:33;102447.75;;;14.00;65.48
29359;BME280;16347;53.232;6.556;2023-04-16T10:15:01;102448.16;;;13.95;65.06
29359;BME280;16347;53.232;6.556;2023-04-16T10:17:31;102448.75;;;13.99;64.94
29359;BME280;16347;53.232;6.556;2023-04-16T10:20:00;102447.00;;;14.07;64.98
29359;BME280;16347;53.232;6.556;2023-04-16T10:22:29;102453.22;;;14.09;64.98
29359;BME280;16347;53.232;6.556;2023-04-16T10:24:58;102453.06;;;14.11;64.95
29359;BME280;16347;53.232;6.556;2023-04-16T10:27:26;102457.13;;;14.16;64.49
29359;BME280;16347;53.232;6.556;2023-04-16T10:29:55;102454.22;;;14.08;64.25
29359;BME280;16347;53.232;6.556;2023-04-16T10:32:24;102452.94;;;14.03;64.15
29359;BME280;16347;53.232;6.556;2023-04-16T10:34:56;102457.81;;;14.09;64.60
29359;BME280;16347;53.232;6.556;2023-04-16T10:37:28;102467.78;;;14.19;64.48
29359;BME280;16347;53.232;6.556;2023-04-16T10:39:57;102455.50;;;14.14;64.14
29359;BME280;16347;53.232;6.556;2023-04-16T10:42:25;102457.41;;;14.13;64.21
29359;BME280;16347;53.232;6.556;2023-04-16T10:44:53;102467.47;;;14.13;64.35
29359;BME280;16347;53.232;6.556;2023-04-16T10:47:23;102462.31;;;14.10;64.04
29359;BME280;16347;53.232;6.556;2023-04-16T10:49:52;102466.16;;;14.07;64.78
29359;BME280;16347;53.232;6.556;2023-04-16T10:52:22;102461.84;;;13.95;64.67
29359;BME280;16347;53.232;6.556;2023-04-16T10:54:51;102464.69;;;13.94;65.28
29359;BME280;16347;53.232;6.556;2023-04-16T10:57:21;102457.66;;;14.01;65.45
29359;BME280;16347;53.232;6.556;2023-04-16T10:59:49;102463.00;;;13.93;65.15
29359;BME280;16347;53.232;6.556;2023-04-16T11:02:17;102465.84;;;13.91;65.16
29359;BME280;16347;53.232;6.556;2023-04-16T11:04:47;102467.41;;;13.74;65.25
29359;BME280;16347;53.232;6.556;2023-04-16T11:07:17;102468.41;;;13.73;66.11
29359;BME280;16347;53.232;6.556;2023-04-16T11:09:51;102467.69;;;13.81;65.99
29359;BME280;16347;53.232;6.556;2023-04-16T11:12:20;102471.19;;;13.83;65.64
29359;BME280;16347;53.232;6.556;2023-04-16T11:14:49;102474.91;;;13.82;65.50
29359;BME280;16347;53.232;6.556;2023-04-16T11:17:18;102463.28;;;13.90;65.46
29359;BME280;16347;53.232;6.556;2023-04-16T11:19:46;102457.94;;;13.88;65.43
29359;BME280;16347;53.232;6.556;2023-04-16T11:22:16;102469.47;;;13.92;65.21
29359;BME280;16347;53.232;6.556;2023-04-16T11:24:44;102457.66;;;13.91;65.24
29359;BME280;16347;53.232;6.556;2023-04-16T11:27:14;102466.91;;;14.00;65.14
29359;BME280;16347;53.232;6.556;2023-04-16T11:29:42;102453.66;;;14.05;65.41
29359;BME280;16347;53.232;6.556;2023-04-16T11:32:19;102462.13;;;14.11;65.71
29359;BME280;16347;53.232;6.556;2023-04-16T11:34:48;102460.56;;;14.18;65.52
29359;BME280;16347;53.232;6.556;2023-04-16T11:37:19;102459.13;;;14.14;64.85
29359;BME280;16347;53.232;6.556;2023-04-16T11:39:48;102464.88;;;14.11;65.34
29359;BME280;16347;53.232;6.556;2023-04-16T11:42:21;102459.56;;;14.19;65.40
29359;BME280;16347;53.232;6.556;2023-04-16T11:44:53;102465.03;;;14.19;65.77
29359;BME280;16347;53.232;6.556;2023-04-16T11:47:23;102463.75;;;14.23;65.29
29359;BME280;16347;53.232;6.556;2023-04-16T11:49:51;102465.47;;;14.24;65.42
29359;BME280;16347;53.232;6.556;2023-04-16T11:52:26;102468.09;;;14.35;65.57
29359;BME280;16347;53.232;6.556;2023-04-16T11:54:54;102471.84;;;14.34;65.22
29359;BME280;16347;53.232;6.556;2023-04-16T11:57:25;102473.00;;;14.42;65.36
29359;BME280;16347;53.232;6.556;2023-04-16T11:59:53;102479.19;;;14.44;64.87
29359;BME280;16347;53.232;6.556;2023-04-16T12:02:39;102477.56;;;14.31;65.31
29359;BME280;16347;53.232;6.556;2023-04-16T12:05:25;102477.00;;;14.37;64.85
29359;BME280;16347;53.232;6.556;2023-04-16T12:07:53;102475.81;;;14.30;64.86
29359;BME280;16347;53.232;6.556;2023-04-16T12:10:22;102477.72;;;14.30;64.85
29359;BME280;16347;53.232;6.556;2023-04-16T12:12:51;102477.41;;;14.14;64.76
29359;BME280;16347;53.232;6.556;2023-04-16T12:15:19;102465.75;;;14.12;64.80
29359;BME280;16347;53.232;6.556;2023-04-16T12:17:47;102464.59;;;14.14;65.01
29359;BME280;16347;53.232;6.556;2023-04-16T12:20:16;102472.22;;;14.11;65.29
29359;BME280;16347;53.232;6.556;2023-04-16T12:22:45;102470.94;;;14.24;65.13
29359;BME280;16347;53.232;6.556;2023-04-16T12:25:15;102485.94;;;14.30;64.91
29359;BME280;16347;53.232;6.556;2023-04-16T12:27:44;102481.16;;;14.22;64.12
29359;BME280;16347;53.232;6.556;2023-04-16T12:30:15;102480.72;;;14.17;64.41
29359;BME280;16347;53.232;6.556;2023-04-16T12:32:49;102479.03;;;14.35;64.15
29359;BME280;16347;53.232;6.556;2023-04-16T12:35:29;102482.03;;;14.32;63.61
29359;BME280;16347;53.232;6.556;2023-04-16T12:37:57;102484.69;;;14.44;63.78
29359;BME280;16347;53.232;6.556;2023-04-16T12:40:25;102488.81;;;14.38;63.73
29359;BME280;16347;53.232;6.556;2023-04-16T12:42:53;102485.38;;;14.36;63.55
29359;BME280;16347;53.232;6.556;2023-04-16T12:45:23;102483.81;;;14.43;63.39
29359;BME280;16347;53.232;6.556;2023-04-16T12:47:51;102483.34;;;14.38;63.37
29359;BME280;16347;53.232;6.556;2023-04-16T12:50:19;102482.06;;;14.42;63.23
29359;BME280;16347;53.232;6.556;2023-04-16T12:52:47;102484.50;;;14.64;63.54
29359;BME280;16347;53.232;6.556;2023-04-16T12:55:15;102482.06;;;14.80;63.38
29359;BME280;16347;53.232;6.556;2023-04-16T12:57:43;102485.03;;;14.97;63.88
29359;BME280;16347;53.232;6.556;2023-04-16T13:00:15;102480.84;;;15.02;63.72